createdAt,value
2023-04-19T00:02:30.316Z,99.90
2023-04-19T00:05:20.112Z,99.90
2023-04-19T00:08:08.937Z,99.90
2023-04-19T00:10:57.473Z,99.90
2023-04-19T00:13:45.972Z,99.90
2023-04-19T00:16:35.849Z,99.90
2023-04-19T00:19:24.324Z,99.90
2023-04-19T00:22:12.822Z,99.90
2023-04-19T00:25:02.082Z,99.90
2023-04-19T00:27:50.550Z,99.90
2023-04-19T00:30:39.458Z,99.90
2023-04-19T00:33:29.387Z,99.90
2023-04-19T00:36:19.161Z,99.90
2023-04-19T00:39:08.861Z,99.90
2023-04-19T00:42:00.011Z,99.90
2023-04-19T00:44:48.558Z,99.90
2023-04-19T00:47:37.550Z,99.90
2023-04-19T00:50:28.106Z,99.90
2023-04-19T00:53:18.554Z,99.90
2023-04-19T00:56:09.232Z,99.90
2023-04-19T00:58:58.166Z,99.90
2023-04-19T01:01:47.130Z,99.90
2023-04-19T01:04:36.195Z,99.90
2023-04-19T01:07:26.284Z,99.90
2023-04-19T01:10:15.842Z,99.90
2023-04-19T01:13:04.346Z,99.90
2023-04-19T01:16:00.064Z,99.90
2023-04-19T01:18:48.977Z,99.90
2023-04-19T01:21:39.471Z,99.90
2023-04-19T01:24:29.331Z,99.90
2023-04-19T01:27:17.855Z,99.90
2023-04-19T01:30:08.046Z,99.90
2023-04-19T01:32:56.629Z,99.90
2023-04-19T01:35:45.196Z,99.90
2023-04-19T01:38:35.043Z,99.90
2023-04-19T01:41:27.113Z,99.90
2023-04-19T01:44:16.045Z,99.90
2023-04-19T01:47:05.635Z,99.90
2023-04-19T01:49:54.964Z,99.90
2023-04-19T01:52:43.434Z,99.90
2023-04-19T01:55:32.568Z,99.90
2023-04-19T01:58:22.471Z,99.90
2023-04-19T02:01:12.620Z,99.90
2023-04-19T02:04:01.699Z,99.90
2023-04-19T02:06:50.397Z,99.90
2023-04-19T02:09:39.794Z,99.90
2023-04-19T02:12:29.502Z,99.90
2023-04-19T02:15:19.432Z,99.90
2023-04-19T02:18:08.227Z,99.90
2023-04-19T02:20:56.808Z,99.90
2023-04-19T02:23:45.684Z,99.90
2023-04-19T02:26:34.207Z,99.90
2023-04-19T02:29:22.883Z,99.90
2023-04-19T02:32:13.432Z,99.90
2023-04-19T02:35:01.926Z,99.90
2023-04-19T02:37:51.291Z,99.90
2023-04-19T02:40:40.195Z,99.90
2023-04-19T02:43:28.718Z,99.90
2023-04-19T02:46:17.303Z,99.90
2023-04-19T02:49:07.484Z,99.90
2023-04-19T02:51:56.200Z,99.90
2023-04-19T02:54:44.852Z,99.90
2023-04-19T02:57:33.542Z,99.90
2023-04-19T03:00:22.349Z,99.90
2023-04-19T03:03:23.036Z,99.90
2023-04-19T03:06:13.024Z,99.90
2023-04-19T03:09:01.997Z,99.90
2023-04-19T03:11:50.525Z,99.90
2023-04-19T03:14:39.581Z,99.90
2023-04-19T03:17:28.248Z,99.90
2023-04-19T03:20:18.194Z,99.90
2023-04-19T03:23:08.767Z,99.90
2023-04-19T03:25:57.582Z,99.90
2023-04-19T03:28:54.830Z,99.90
2023-04-19T03:31:53.147Z,99.90
2023-04-19T03:34:41.865Z,99.90
2023-04-19T03:37:30.503Z,99.90
2023-04-19T03:40:21.403Z,99.90
2023-04-19T03:43:10.133Z,99.90
2023-04-19T03:45:58.675Z,99.90
2023-04-19T03:48:47.432Z,99.90
2023-04-19T03:51:35.958Z,99.90
2023-04-19T03:54:24.450Z,99.90
2023-04-19T03:57:17.503Z,99.90
2023-04-19T04:00:08.251Z,99.90
2023-04-19T04:03:02.548Z,99.90
2023-04-19T04:05:51.540Z,99.90
2023-04-19T04:08:40.054Z,99.90
2023-04-19T04:11:28.538Z,99.90
2023-04-19T04:14:18.428Z,99.90
2023-04-19T04:17:08.427Z,99.90
2023-04-19T04:19:57.321Z,99.90
2023-04-19T04:22:49.034Z,99.90
2023-04-19T04:25:41.286Z,99.90
2023-04-19T04:28:33.452Z,99.90
2023-04-19T04:31:24.431Z,99.90
2023-04-19T04:34:13.242Z,99.90
2023-04-19T04:37:35.090Z,99.90
2023-04-19T04:40:24.491Z,99.90
2023-04-19T04:43:16.168Z,99.90
2023-04-19T04:46:05.082Z,99.90
2023-04-19T04:49:01.730Z,99.90
2023-04-19T04:51:51.192Z,99.90
2023-04-19T04:54:43.903Z,99.90
2023-04-19T04:57:42.362Z,99.90
2023-04-19T05:01:01.188Z,99.90
2023-04-19T05:04:13.404Z,99.90
2023-04-19T05:07:04.947Z,99.90
2023-04-19T05:09:54.688Z,99.90
2023-04-19T05:12:48.036Z,99.90
2023-04-19T05:15:38.083Z,99.90
2023-04-19T05:18:27.202Z,99.90
2023-04-19T05:21:18.945Z,99.90
2023-04-19T05:24:12.207Z,99.90
2023-04-19T05:27:01.910Z,99.90
2023-04-19T05:29:51.427Z,99.90
2023-04-19T05:32:40.991Z,99.90
2023-04-19T05:35:32.581Z,99.90
2023-04-19T05:38:21.880Z,99.90
2023-04-19T05:41:12.917Z,99.90
2023-04-19T05:44:05.168Z,99.90
2023-04-19T05:46:55.677Z,99.90
2023-04-19T05:50:26.136Z,99.90
2023-04-19T05:53:50.236Z,99.90
2023-04-19T05:56:54.534Z,99.90
2023-04-19T05:59:47.761Z,99.90
2023-04-19T06:02:40.619Z,99.90
2023-04-19T06:05:37.082Z,99.90
2023-04-19T06:08:29.097Z,99.90
2023-04-19T06:11:26.519Z,99.90
2023-04-19T06:14:22.466Z,99.90
2023-04-19T06:17:13.015Z,99.90
2023-04-19T06:20:02.209Z,99.90
2023-04-19T06:22:54.631Z,99.90
2023-04-19T06:25:43.530Z,99.90
2023-04-19T06:28:33.570Z,99.90
2023-04-19T06:31:24.755Z,99.90
2023-04-19T06:34:15.756Z,99.90
2023-04-19T06:37:09.508Z,99.90
2023-04-19T06:43:47.454Z,99.90
2023-04-19T06:47:14.201Z,99.90
2023-04-19T06:53:43.938Z,99.90
2023-04-19T06:57:02.202Z,99.90
2023-04-19T07:00:35.779Z,99.90
2023-04-19T07:03:50.296Z,99.90
2023-04-19T07:06:56.171Z,99.90
2023-04-19T07:10:12.412Z,99.90
2023-04-19T07:13:21.294Z,99.90
2023-04-19T07:16:33.167Z,99.90
2023-04-19T07:20:02.818Z,99.90
2023-04-19T07:23:00.465Z,99.90
2023-04-19T07:26:02.571Z,99.90
2023-04-19T07:29:18.614Z,99.90
2023-04-19T07:32:57.656Z,99.90
2023-04-19T07:36:18.599Z,99.90
2023-04-19T07:39:45.090Z,99.90
2023-04-19T07:43:26.476Z,99.90
2023-04-19T08:13:10.064Z,99.90
2023-04-19T08:16:41.846Z,99.90
2023-04-19T08:20:48.051Z,99.90
2023-04-19T09:07:55.494Z,97.90
2023-04-19T09:11:14.163Z,96.50
2023-04-19T09:17:41.525Z,95.10
2023-04-19T09:21:06.946Z,95.20
2023-04-19T09:24:17.996Z,94.10
2023-04-19T10:14:41.419Z,88.20
2023-04-19T10:19:46.460Z,87.00
2023-04-19T10:22:15.672Z,89.40
2023-04-19T10:25:13.919Z,88.70
2023-04-19T10:28:02.457Z,85.00
2023-04-19T10:30:56.307Z,85.70
2023-04-19T10:33:44.931Z,86.20
2023-04-19T10:36:33.745Z,87.00
2023-04-19T10:39:42.643Z,85.80
2023-04-19T10:43:18.668Z,85.40
2023-04-19T10:46:16.036Z,83.50
2023-04-19T10:49:07.713Z,81.40
2023-04-19T10:51:57.895Z,81.50
2023-04-19T10:54:57.673Z,80.30
2023-04-19T10:58:05.615Z,76.80
2023-04-19T11:01:38.060Z,74.90
2023-04-19T11:05:01.778Z,78.10
2023-04-19T11:07:50.413Z,79.90
2023-04-19T11:10:42.560Z,77.70
2023-04-19T11:13:31.174Z,77.30
2023-04-19T11:16:20.406Z,80.10
2023-04-19T11:19:11.224Z,80.70
2023-04-19T11:22:01.064Z,83.20
2023-04-19T11:24:49.562Z,83.00
2023-04-19T11:27:41.074Z,84.00
2023-04-19T11:30:31.357Z,81.40
2023-04-19T11:33:24.609Z,82.20
2023-04-19T11:36:14.290Z,81.20
2023-04-19T11:39:03.207Z,81.10
2023-04-19T11:41:51.685Z,80.20
2023-04-19T11:44:41.506Z,79.30
2023-04-19T11:47:30.828Z,79.30
2023-04-19T11:50:36.498Z,79.20
2023-04-19T11:53:27.112Z,78.50
2023-04-19T11:56:16.912Z,79.40
2023-04-19T11:59:05.655Z,77.40
2023-04-19T12:01:55.557Z,76.80
2023-04-19T12:04:44.202Z,74.50
2023-04-19T12:07:32.864Z,77.20
2023-04-19T12:10:22.133Z,76.50
2023-04-19T12:13:20.071Z,76.00
2023-04-19T12:16:09.583Z,74.80
2023-04-19T12:18:59.498Z,76.30
2023-04-19T12:21:49.139Z,75.30
2023-04-19T12:24:39.557Z,76.60
2023-04-19T12:27:28.170Z,74.10
2023-04-19T12:30:16.839Z,74.40
2023-04-19T12:33:07.111Z,72.70
2023-04-19T12:35:56.963Z,72.80
2023-04-19T12:38:45.451Z,71.70
2023-04-19T12:41:33.867Z,71.80
2023-04-19T12:44:22.347Z,71.40
2023-04-19T12:47:10.832Z,71.80
2023-04-19T12:49:59.364Z,71.00
2023-04-19T12:52:49.498Z,71.00
2023-04-19T12:55:38.066Z,69.30
2023-04-19T12:58:28.066Z,69.80
2023-04-19T13:01:17.138Z,69.30
2023-04-19T13:04:07.796Z,70.20
2023-04-19T13:06:56.505Z,70.00
2023-04-19T13:09:56.070Z,70.80
2023-04-19T13:12:45.291Z,71.00
2023-04-19T13:15:33.815Z,70.60
2023-04-19T13:18:22.908Z,69.60
2023-04-19T13:21:11.425Z,70.20
2023-04-19T13:24:00.014Z,68.60
2023-04-19T13:26:50.056Z,68.60
2023-04-19T13:29:38.635Z,67.50
2023-04-19T13:32:27.100Z,68.20
2023-04-19T13:35:15.587Z,68.10
2023-04-19T13:48:50.838Z,64.90
2023-04-19T13:52:32.259Z,63.60
2023-04-19T13:56:09.340Z,65.80
2023-04-19T13:59:21.059Z,65.60
2023-04-19T14:03:01.712Z,66.10
2023-04-19T14:05:50.379Z,62.90
2023-04-19T14:08:40.342Z,64.40
2023-04-19T14:11:52.887Z,63.10
2023-04-19T14:14:41.781Z,62.60
2023-04-19T14:17:30.341Z,62.10
2023-04-19T14:20:19.230Z,63.70
2023-04-19T14:27:10.339Z,64.40
2023-04-19T14:30:00.052Z,64.20
2023-04-19T14:32:59.876Z,63.90
2023-04-19T14:36:59.113Z,63.40
2023-04-19T14:39:48.103Z,61.30
2023-04-19T14:42:38.253Z,62.10
2023-04-19T14:45:27.564Z,62.60
2023-04-19T14:48:16.313Z,63.00
2023-04-19T14:51:05.233Z,61.40
2023-04-19T14:53:53.858Z,61.30
2023-04-19T14:56:42.483Z,59.10
2023-04-19T14:59:32.299Z,59.80
2023-04-19T15:02:21.237Z,58.50
2023-04-19T15:05:11.137Z,58.40
2023-04-19T15:07:59.701Z,57.70
2023-04-19T15:10:48.211Z,57.90
2023-04-19T15:13:36.840Z,58.40
2023-04-19T15:16:26.763Z,57.70
2023-04-19T15:20:33.242Z,57.50
2023-04-19T15:23:26.031Z,56.70
2023-04-19T15:26:14.586Z,57.10
2023-04-19T15:29:03.225Z,57.40
2023-04-19T15:31:53.341Z,56.50
2023-04-19T15:34:41.924Z,56.30
2023-04-19T15:37:30.442Z,56.10
2023-04-19T15:40:19.051Z,56.00
2023-04-19T15:43:08.193Z,56.30
2023-04-19T15:45:57.779Z,56.10
2023-04-19T15:48:48.426Z,55.10
2023-04-19T15:51:38.344Z,55.70
2023-04-19T15:54:28.800Z,56.40
2023-04-19T15:57:17.339Z,56.00
2023-04-19T16:00:09.373Z,55.70
2023-04-19T16:03:00.853Z,55.30
2023-04-19T16:05:51.682Z,54.70
2023-04-19T16:08:41.195Z,54.90
2023-04-19T16:11:29.912Z,54.40
2023-04-19T16:14:18.352Z,54.90
2023-04-19T16:17:07.593Z,54.20
2023-04-19T16:19:56.035Z,54.20
2023-04-19T16:22:47.740Z,52.50
2023-04-19T16:25:36.405Z,53.00
2023-04-19T16:28:24.873Z,52.80
2023-04-19T16:31:13.402Z,53.30
2023-04-19T16:34:01.825Z,53.00
2023-04-19T16:36:50.230Z,52.70
2023-04-19T16:39:40.074Z,52.40
2023-04-19T16:42:28.580Z,52.50
2023-04-19T16:45:17.885Z,53.30
2023-04-19T16:48:06.567Z,53.10
2023-04-19T16:50:55.087Z,53.00
2023-04-19T16:53:45.443Z,53.00
2023-04-19T16:56:35.268Z,52.80
2023-04-19T16:59:23.758Z,53.00
2023-04-19T17:02:12.273Z,53.00
2023-04-19T17:05:01.250Z,52.60
2023-04-19T17:07:51.519Z,52.90
2023-04-19T17:10:40.027Z,52.80
2023-04-19T17:13:29.851Z,53.00
2023-04-19T17:16:18.413Z,53.10
2023-04-19T17:19:06.869Z,52.50
2023-04-19T17:21:55.584Z,52.70
2023-04-19T17:24:44.222Z,53.00
2023-04-19T17:27:33.249Z,53.40
2023-04-19T17:30:23.835Z,52.90
2023-04-19T17:33:12.591Z,52.50
2023-04-19T17:36:01.331Z,52.60
2023-04-19T17:38:49.804Z,53.10
2023-04-19T17:41:38.429Z,52.70
2023-04-19T17:44:27.132Z,53.10
2023-04-19T17:47:17.139Z,53.20
2023-04-19T17:50:08.261Z,51.90
2023-04-19T17:52:56.878Z,52.20
2023-04-19T17:55:46.226Z,51.90
2023-04-19T17:58:37.291Z,52.40
2023-04-19T18:01:25.933Z,52.70
2023-04-19T18:04:18.030Z,52.50
2023-04-19T18:11:58.410Z,52.90
2023-04-19T18:14:47.161Z,53.40
2023-04-19T18:17:36.386Z,53.40
2023-04-19T18:20:27.542Z,53.80
2023-04-19T18:23:17.964Z,53.10
2023-04-19T18:26:06.708Z,53.50
2023-04-19T18:28:55.392Z,52.80
2023-04-19T18:31:44.188Z,53.40
2023-04-19T18:34:35.014Z,53.60
2023-04-19T18:37:25.113Z,53.60
2023-04-19T18:40:23.627Z,53.70
2023-04-19T18:43:25.728Z,53.80
2023-04-19T18:46:21.248Z,53.80
2023-04-19T18:49:33.476Z,54.20
2023-04-19T18:52:41.607Z,54.40
2023-04-19T18:56:12.237Z,54.70
2023-04-19T18:59:06.337Z,55.10
2023-04-19T19:02:22.060Z,55.30
2023-04-19T19:05:17.022Z,55.20
2023-04-19T19:08:12.180Z,55.50
2023-04-19T19:13:53.117Z,55.40
2023-04-19T19:16:51.335Z,55.60
2023-04-19T19:19:46.241Z,55.90
2023-04-19T19:22:37.795Z,56.40
2023-04-19T19:25:36.333Z,56.10
2023-04-19T19:28:32.824Z,56.30
2023-04-19T19:31:25.802Z,56.20
2023-04-19T19:34:27.231Z,56.40
2023-04-19T19:37:21.642Z,56.40
2023-04-19T19:40:11.988Z,56.60
2023-04-19T19:43:05.134Z,56.50
2023-04-19T19:46:12.035Z,56.70
2023-04-19T19:49:01.777Z,56.90
2023-04-19T19:51:58.637Z,56.90
2023-04-19T19:54:48.535Z,56.90
2023-04-19T20:03:36.258Z,56.80
2023-04-19T20:07:17.286Z,56.80
2023-04-19T20:09:35.450Z,56.80
2023-04-19T20:12:24.336Z,56.90
2023-04-19T20:15:14.550Z,56.70
2023-04-19T20:18:05.748Z,56.80
2023-04-19T20:20:54.500Z,56.80
2023-04-19T20:23:43.253Z,56.70
2023-04-19T20:26:32.074Z,56.30
2023-04-19T20:29:20.744Z,56.40
2023-04-19T20:32:09.832Z,56.50
2023-04-19T20:35:00.387Z,56.20
2023-04-19T20:37:50.932Z,56.20
2023-04-19T20:40:40.896Z,56.30
2023-04-19T20:43:32.631Z,56.40
2023-04-19T20:46:22.175Z,56.30
2023-04-19T20:49:10.993Z,56.00
2023-04-19T20:52:02.153Z,56.10
2023-04-19T20:54:50.599Z,56.60
2023-04-19T20:57:39.100Z,55.90
2023-04-19T21:00:27.571Z,55.90
2023-04-19T21:03:16.269Z,55.80
2023-04-19T21:06:05.509Z,55.90
2023-04-19T21:08:55.316Z,56.10
2023-04-19T21:11:43.798Z,55.80
2023-04-19T21:14:33.564Z,56.00
2023-04-19T21:17:22.981Z,55.80
2023-04-19T21:20:17.954Z,55.70
2023-04-19T21:23:06.562Z,55.60
2023-04-19T21:25:56.455Z,55.20
2023-04-19T21:28:44.864Z,55.40
2023-04-19T21:31:33.280Z,55.50
2023-04-19T21:34:21.664Z,55.30
2023-04-19T21:37:10.739Z,55.60
2023-04-19T21:39:59.333Z,55.10
2023-04-19T21:42:49.275Z,55.20
2023-04-19T21:45:39.984Z,55.40
2023-04-19T21:48:28.435Z,55.20
2023-04-19T21:51:17.084Z,55.50
2023-04-19T21:54:05.578Z,55.30
2023-04-19T21:56:53.884Z,55.50
2023-04-19T21:59:43.669Z,55.40
2023-04-19T22:02:32.099Z,55.40
2023-04-19T22:05:20.543Z,55.60
2023-04-19T22:08:09.148Z,55.50
2023-04-19T22:10:58.309Z,55.80
2023-04-19T22:13:46.962Z,56.10
2023-04-19T22:16:36.823Z,56.00
2023-04-19T22:19:25.680Z,56.20
2023-04-19T22:22:14.093Z,56.30
2023-04-19T22:25:02.597Z,57.00
2023-04-19T22:27:50.934Z,56.50
2023-04-19T22:30:39.319Z,56.70
2023-04-19T22:33:28.987Z,56.80
2023-04-19T22:36:17.363Z,57.00
2023-04-19T22:39:06.047Z,57.10
2023-04-19T22:41:54.427Z,57.10
2023-04-19T22:44:42.855Z,57.10
2023-04-19T22:47:32.995Z,57.20
2023-04-19T22:50:23.506Z,57.30
2023-04-19T22:53:12.674Z,57.20
2023-04-19T22:56:01.031Z,57.20
2023-04-19T22:58:49.529Z,57.20
2023-04-19T23:01:37.947Z,57.20
2023-04-19T23:04:26.890Z,57.10
2023-04-19T23:07:19.831Z,57.10
2023-04-19T23:10:10.675Z,57.10
2023-04-19T23:12:59.495Z,57.10
2023-04-19T23:15:49.446Z,57.30
2023-04-19T23:18:38.576Z,57.30
2023-04-19T23:21:27.146Z,57.40
2023-04-19T23:24:16.820Z,57.40
2023-04-19T23:27:05.662Z,57.40
2023-04-19T23:29:54.009Z,57.40
2023-04-19T23:32:42.381Z,57.50
2023-04-19T23:35:30.882Z,57.50
2023-04-19T23:38:19.456Z,58.00
2023-04-19T23:41:12.110Z,57.50
2023-04-19T23:44:00.521Z,57.50
2023-04-19T23:46:48.936Z,57.60
2023-04-19T23:49:37.265Z,58.30
2023-04-19T23:52:25.656Z,57.70
2023-04-19T23:55:14.163Z,57.90
2023-04-19T23:58:03.961Z,57.80
